Time;durP1;ratioP1;P1;durP2;ratioP2;P2;SDS_P1;SDS_P2;PMS_P1;PMS_P2;Temp;Humidity;BMP_temperature;BMP_pressure;BME280_temperature;BME280_humidity;BME280_pressure;Samples;Min_cycle;Max_cycle;Signal;HPM_P1;HPM_P2
2022/08/24 00:04:34;;;;;;;11.35;6.47;;;;;;;20.94;100.00;100954.34;5140980;57;1141039;-66
2022/08/24 00:09:40;;;;;;;9.20;6.67;;;;;;;20.91;100.00;100955.56;5140852;57;1141074;-68
2022/08/24 00:14:46;;;;;;;15.88;6.15;;;;;;;20.92;100.00;100965.31;5209767;56;1138982;-67
2022/08/24 00:19:52;;;;;;;16.70;6.17;;;;;;;20.96;100.00;100965.27;5227388;56;1141107;-65
2022/08/24 00:24:58;;;;;;;7.10;5.75;;;;;;;20.98;100.00;100964.59;5227578;56;1140988;-66
2022/08/24 00:30:08;;;;;;;14.58;5.50;;;;;;;21.04;100.00;100962.55;5227458;56;1139161;-67
2022/08/24 00:35:19;;;;;;;8.73;5.33;;;;;;;20.96;100.00;100954.52;5154882;56;1141184;-69
2022/08/24 00:40:36;;;;;;;7.30;5.42;;;;;;;21.00;100.00;100964.41;5185719;56;1139001;-67
2022/08/24 00:45:47;;;;;;;8.15;5.90;;;;;;;21.02;100.00;100964.58;5141695;56;1138994;-67
2022/08/24 00:51:06;;;;;;;12.33;6.42;;;;;;;21.06;100.00;100971.80;5138047;57;1139082;-67
2022/08/24 00:56:16;;;;;;;9.57;6.37;;;;;;;21.02;100.00;100978.03;5138409;57;1143080;-66
2022/08/24 01:01:23;;;;;;;11.73;5.53;;;;;;;20.97;100.00;100975.02;5194753;56;1141018;-67
2022/08/24 01:06:30;;;;;;;9.10;4.97;;;;;;;20.88;100.00;100976.08;5223795;56;1143136;-67
2022/08/24 01:11:36;;;;;;;7.28;5.08;;;;;;;20.81;100.00;100971.55;5210217;56;1141055;-65
2022/08/24 01:22:35;;;;;;;6.67;5.35;;;;;;;20.78;100.00;100971.93;5223693;56;1141088;-65
2022/08/24 01:27:44;;;;;;;8.83;5.73;;;;;;;20.83;100.00;100985.66;5224216;56;1141016;-68
2022/08/24 01:33:01;;;;;;;11.12;5.83;;;;;;;20.79;100.00;100985.17;5223794;56;1141302;-69
2022/08/24 01:38:11;;;;;;;12.13;6.35;;;;;;;20.69;100.00;100984.55;5223811;56;1143356;-69
2022/08/24 01:43:17;;;;;;;11.53;6.33;;;;;;;20.67;100.00;100983.37;5223668;56;1143416;-68
2022/08/24 01:48:23;;;;;;;10.35;6.20;;;;;;;20.55;100.00;100973.17;5220628;56;1143086;-67
2022/08/24 01:53:32;;;;;;;10.30;6.78;;;;;;;20.44;100.00;100960.11;5213389;56;1143165;-66
2022/08/24 01:58:47;;;;;;;9.65;6.95;;;;;;;20.39;100.00;100955.24;5195067;56;1142500;-67
2022/08/24 02:03:54;;;;;;;8.38;7.15;;;;;;;20.32;100.00;100955.55;5127894;57;1141087;-66
2022/08/24 02:09:01;;;;;;;14.98;7.10;;;;;;;20.41;100.00;100952.39;5127930;57;1141235;-66
2022/08/24 02:14:09;;;;;;;7.03;6.17;;;;;;;20.42;100.00;100952.22;5171911;57;1143371;-69
2022/08/24 02:19:15;;;;;;;11.48;6.42;;;;;;;20.29;100.00;100955.92;5212176;56;1141071;-66
2022/08/24 02:24:21;;;;;;;8.40;5.60;;;;;;;20.08;100.00;100967.69;5213338;56;1143405;-67
2022/08/24 02:29:28;;;;;;;6.65;6.00;;;;;;;19.84;100.00;100972.59;5213278;56;1141104;-67
2022/08/24 02:34:34;;;;;;;7.08;5.75;;;;;;;19.70;100.00;100974.09;5206613;56;1141160;-66
2022/08/24 02:39:40;;;;;;;11.43;6.60;;;;;;;19.78;100.00;100969.22;5213315;56;1141098;-66
2022/08/24 02:44:48;;;;;;;8.80;6.35;;;;;;;19.76;100.00;100968.55;5213233;56;1141095;-66
2022/08/24 02:49:54;;;;;;;10.15;5.90;;;;;;;19.84;100.00;100965.38;5215008;56;1138910;-68
2022/08/24 02:55:00;;;;;;;22.25;7.72;;;;;;;19.97;100.00;100964.36;5180990;56;1141097;-66
2022/08/24 03:00:12;;;;;;;20.92;7.58;;;;;;;20.10;100.00;100969.20;5170765;56;1141150;-66
2022/08/24 03:05:19;;;;;;;10.70;6.03;;;;;;;20.09;100.00;100968.03;5223828;56;1141316;-68
2022/08/24 03:10:25;;;;;;;19.20;5.97;;;;;;;20.08;100.00;100977.09;5223509;56;1141140;-68
2022/08/24 03:15:31;;;;;;;14.05;6.20;;;;;;;20.11;100.00;100983.47;5205627;56;1141051;-66
2022/08/24 03:20:37;;;;;;;12.82;6.85;;;;;;;20.08;100.00;100988.67;5085780;57;1141024;-64
2022/08/24 03:25:44;;;;;;;19.75;7.83;;;;;;;20.06;100.00;100998.73;5073863;58;1141120;-67
2022/08/24 03:30:51;;;;;;;12.15;5.40;;;;;;;20.01;100.00;100992.52;5073819;58;1141049;-68
2022/08/24 03:35:57;;;;;;;8.85;5.50;;;;;;;19.81;100.00;101001.94;5073917;58;1141299;-67
2022/08/24 03:41:04;;;;;;;61.28;5.17;;;;;;;19.53;100.00;101012.64;5073859;58;1138919;-68
2022/08/24 03:46:11;;;;;;;12.93;5.42;;;;;;;19.18;100.00;101026.59;5034957;58;1141137;-69
2022/08/24 03:51:22;;;;;;;9.48;6.53;;;;;;;18.90;100.00;101029.16;5056879;58;1140471;-68
2022/08/24 03:56:28;;;;;;;8.83;5.42;;;;;;;18.78;100.00;101035.81;5050335;57;1139052;-65
2022/08/24 04:01:34;;;;;;;15.13;5.37;;;;;;;18.77;100.00;101044.84;5086691;57;1137027;-67
2022/08/24 04:06:43;;;;;;;8.25;5.83;;;;;;;18.77;100.00;101034.13;5065207;57;1139086;-65
2022/08/24 04:11:49;;;;;;;10.88;6.45;;;;;;;18.98;100.00;101044.77;5106368;57;1140973;-68
2022/08/24 04:16:57;;;;;;;7.10;6.37;;;;;;;19.19;100.00;101055.09;5124805;57;1143147;-68
2022/08/24 04:22:05;;;;;;;12.20;7.23;;;;;;;19.36;100.00;101059.17;5108068;57;1141220;-65
2022/08/24 04:27:10;;;;;;;15.98;8.18;;;;;;;19.38;100.00;101055.84;5082347;57;1143600;-68
2022/08/24 04:32:17;;;;;;;16.23;6.40;;;;;;;19.42;100.00;101054.48;5092489;57;1143095;-65
2022/08/24 04:37:23;;;;;;;17.37;7.60;;;;;;;19.45;100.00;101059.03;5042110;58;1143386;-66
2022/08/24 04:42:30;;;;;;;25.02;9.18;;;;;;;19.47;100.00;101063.73;5042147;58;1143261;-67
2022/08/24 04:47:36;;;;;;;35.30;8.50;;;;;;;19.52;100.00;101059.26;5041843;58;1143228;-68
2022/08/24 04:52:43;;;;;;;33.67;8.48;;;;;;;19.59;100.00;101062.95;5098290;57;1143424;-66
2022/08/24 04:57:50;;;;;;;18.23;7.45;;;;;;;19.63;100.00;101071.02;5099947;57;1143351;-69
2022/08/24 05:02:56;;;;;;;20.60;8.73;;;;;;;19.75;100.00;101067.01;5126551;57;1143192;-66
2022/08/24 05:08:02;;;;;;;16.87;8.95;;;;;;;19.79;100.00;101069.71;5129011;57;1143127;-65
2022/08/24 05:13:10;;;;;;;17.87;8.28;;;;;;;19.83;100.00;101073.75;5129050;57;1143210;-67
2022/08/24 05:18:18;;;;;;;23.57;8.25;;;;;;;19.85;100.00;101077.11;5040480;58;1143242;-68
2022/08/24 05:23:24;;;;;;;25.12;9.08;;;;;;;19.88;100.00;101078.60;5046225;58;1143169;-66
2022/08/24 05:28:34;;;;;;;22.67;8.38;;;;;;;19.84;100.00;101075.43;5046016;58;1143179;-65
2022/08/24 05:33:40;;;;;;;12.15;8.80;;;;;;;19.82;100.00;101076.59;5046120;58;1143267;-65
2022/08/24 05:38:46;;;;;;;14.63;9.60;;;;;;;19.91;100.00;101072.41;5046013;58;1143205;-67
2022/08/24 05:43:54;;;;;;;21.40;10.25;;;;;;;20.01;100.00;101074.42;5045971;58;1143162;-66
2022/08/24 05:49:01;;;;;;;29.07;11.78;;;;;;;20.10;100.00;101074.44;5045865;58;1144841;-68
2022/08/24 05:54:13;;;;;;;22.73;12.35;;;;;;;20.16;100.00;101072.44;5042628;58;1145257;-66
2022/08/24 05:59:24;;;;;;;31.62;18.17;;;;;;;20.20;100.00;101083.16;5078634;57;1145218;-68
2022/08/24 06:04:32;;;;;;;35.43;20.17;;;;;;;20.18;100.00;101082.48;5043505;57;1145252;-68
2022/08/24 06:09:42;;;;;;;41.10;21.87;;;;;;;20.22;100.00;101080.65;5041749;58;1145295;-68
2022/08/24 06:14:50;;;;;;;52.23;21.23;;;;;;;20.25;100.00;101083.51;5134795;56;1145203;-66
2022/08/24 06:19:57;;;;;;;42.80;23.92;;;;;;;20.33;100.00;101085.67;5042832;58;1145284;-67
2022/08/24 06:30:28;;;;;;;42.53;22.87;;;;;;;20.43;100.00;101089.59;5086279;57;1145294;-67
2022/08/24 06:35:39;;;;;;;34.27;21.48;;;;;;;20.50;100.00;101087.88;5123080;57;1143179;-66
2022/08/24 06:40:47;;;;;;;40.95;20.72;;;;;;;20.60;100.00;101089.91;5125306;57;1143359;-66
2022/08/24 06:45:57;;;;;;;34.98;19.73;;;;;;;20.76;100.00;101096.27;5125467;57;1143207;-68
2022/08/24 06:51:11;;;;;;;26.35;16.45;;;;;;;20.91;100.00;101103.45;5123799;57;1143143;-64
2022/08/24 06:56:18;;;;;;;33.35;18.32;;;;;;;21.05;100.00;101099.22;5196363;56;1143447;-65
2022/08/24 07:01:28;;;;;;;34.00;13.70;;;;;;;21.27;100.00;101086.88;5125590;57;1143222;-66
2022/08/24 07:06:36;;;;;;;20.60;10.10;;;;;;;21.61;100.00;101097.31;5125499;57;1143121;-68
2022/08/24 07:11:43;;;;;;;27.00;11.03;;;;;;;21.93;100.00;101101.16;5125353;57;1143227;-67
2022/08/24 07:16:50;;;;;;;22.67;11.35;;;;;;;22.22;100.00;101093.73;5089400;57;1142584;-66
2022/08/24 07:21:59;;;;;;;33.70;11.20;;;;;;;22.55;100.00;101092.95;5125388;57;1143153;-67
2022/08/24 07:27:05;;;;;;;19.27;10.63;;;;;;;22.87;100.00;101081.53;5176689;57;1143141;-65
2022/08/24 07:32:11;;;;;;;20.62;8.60;;;;;;;23.10;100.00;101084.96;5081613;57;1143382;-65
2022/08/24 07:37:19;;;;;;;21.27;7.83;;;;;;;23.29;100.00;101076.81;5125507;57;1139066;-65
2022/08/24 07:42:27;;;;;;;10.23;4.97;;;;;;;23.53;100.00;101080.55;5144975;57;21446;-64
2022/08/24 07:47:33;;;;;;;18.92;5.17;;;;;;;23.64;100.00;101086.84;5125704;57;1139217;-67
2022/08/24 07:52:41;;;;;;;15.73;5.73;;;;;;;23.64;100.00;101092.75;5134989;56;1143127;-66
2022/08/24 07:57:47;;;;;;;18.70;5.17;;;;;;;23.78;100.00;101096.76;5162005;57;1143206;-65
2022/08/24 08:02:53;;;;;;;12.15;4.45;;;;;;;24.02;100.00;101095.54;5156216;57;1143232;-67
2022/08/24 08:07:59;;;;;;;17.52;5.12;;;;;;;24.20;100.00;101098.63;5090120;56;1143244;-65
2022/08/24 08:13:06;;;;;;;21.30;5.33;;;;;;;24.35;100.00;101099.11;5162083;57;1143134;-66
2022/08/24 08:18:13;;;;;;;19.62;4.90;;;;;;;24.60;100.00;101101.69;5161861;57;1143180;-65
2022/08/24 08:28:46;;;;;;;7.05;4.00;;;;;;;24.78;100.00;101103.91;5141660;57;1143138;-64
2022/08/24 08:33:52;;;;;;;10.45;4.62;;;;;;;24.72;100.00;101115.02;5126052;57;1141056;-65
2022/08/24 08:39:00;;;;;;;9.78;4.67;;;;;;;24.80;100.00;101120.78;5078351;57;1143474;-66
2022/08/24 08:44:24;;;;;;;14.13;4.53;;;;;;;25.16;100.00;101114.71;5078744;57;1140975;-65
2022/08/24 08:49:41;;;;;;;16.85;5.10;;;;;;;25.16;100.00;101114.71;5098338;57;1143172;-65
2022/08/24 08:55:25;;;;;;;17.75;5.58;;;;;;;25.10;100.00;101120.08;5137040;57;1143402;-64
2022/08/24 09:01:00;;;;;;;19.45;4.83;;;;;;;25.09;100.00;101126.52;5105191;57;1143138;-65
2022/08/24 09:06:20;;;;;;;13.60;4.97;;;;;;;25.06;100.00;101129.10;5099530;57;1141071;-65
2022/08/24 09:11:48;;;;;;;15.93;4.62;;;;;;;25.24;100.00;101122.66;5130204;56;1141127;-67
2022/08/24 09:17:04;;;;;;;20.90;4.87;;;;;;;25.61;100.00;101125.13;5168264;56;1141195;-65
2022/08/24 09:22:17;;;;;;;11.05;4.62;;;;;;;25.77;100.00;101127.51;5213234;56;1141096;-65
2022/08/24 09:27:52;;;;;;;28.15;5.35;;;;;;;25.39;98.44;101133.87;5207479;56;1141091;-66
2022/08/24 09:33:20;;;;;;;10.00;3.60;;;;;;;25.08;98.68;101132.97;5213596;56;1141047;-64
2022/08/24 09:38:49;;;;;;;14.50;4.83;;;;;;;24.89;98.91;101135.86;5213333;56;1140974;-65
2022/08/24 09:44:08;;;;;;;12.37;5.55;;;;;;;24.78;99.47;101126.39;5208714;56;1141096;-65
2022/08/24 09:49:25;;;;;;;19.62;4.67;;;;;;;24.82;100.00;101129.55;5213248;56;1141083;-66
2022/08/24 09:55:03;;;;;;;24.70;5.95;;;;;;;25.05;100.00;101133.39;5202751;56;1143133;-65
2022/08/24 10:00:25;;;;;;;15.32;4.83;;;;;;;25.18;100.00;101140.23;5168630;56;1143429;-68
2022/08/24 10:05:50;;;;;;;19.17;4.83;;;;;;;25.44;99.59;101136.30;5127749;57;1143016;-65
2022/08/24 10:11:35;;;;;;;18.37;5.53;;;;;;;25.55;99.47;101133.02;5127690;57;1141122;-67
2022/08/24 10:17:04;;;;;;;27.85;5.75;;;;;;;25.92;98.85;101141.21;5056400;58;1139219;-66
2022/08/24 10:22:14;;;;;;;19.45;5.28;;;;;;;26.41;99.47;101137.89;5090049;58;1139219;-68
2022/08/24 10:27:42;;;;;;;14.90;4.75;;;;;;;26.32;96.10;101137.76;5101780;58;1139175;-65
2022/08/24 10:33:16;;;;;;;14.45;4.15;;;;;;;26.13;95.52;101136.13;5102661;58;1139167;-66
2022/08/24 10:44:35;;;;;;;17.75;5.15;;;;;;;25.79;96.18;101135.75;5067324;58;1140810;-65
2022/08/24 10:49:55;;;;;;;41.55;7.55;;;;;;;25.72;95.47;101130.81;5107188;57;1141290;-65
2022/08/24 10:55:25;;;;;;;20.85;4.80;;;;;;;26.14;98.45;101136.45;5169207;56;1141080;-66
2022/08/24 11:00:32;;;;;;;20.85;5.92;;;;;;;26.59;95.09;101128.58;5199987;56;1141079;-69
2022/08/24 11:05:48;;;;;;;15.75;5.25;;;;;;;27.04;94.87;101128.80;5193466;57;1141094;-66
2022/08/24 11:11:14;;;;;;;15.90;4.58;;;;;;;27.31;93.43;101137.19;5208366;56;1141096;-66
2022/08/24 11:16:29;;;;;;;21.20;6.45;;;;;;;27.13;90.84;101134.30;5168829;56;1141167;-67
2022/08/24 11:21:53;;;;;;;19.90;6.60;;;;;;;26.81;87.95;101135.99;5126914;57;1138936;-66
2022/08/24 11:27:18;;;;;;;12.47;4.53;;;;;;;26.65;89.85;101135.06;5127281;57;1138974;-67
2022/08/24 11:32:32;;;;;;;20.20;5.37;;;;;;;26.82;92.36;101142.58;5127268;57;1138973;-68
2022/08/24 11:37:39;;;;;;;17.62;5.17;;;;;;;27.14;91.73;101144.95;5129765;56;1139063;-67
2022/08/24 11:42:56;;;;;;;21.80;5.25;;;;;;;27.47;91.40;101139.44;5212938;56;1138970;-69
2022/08/24 11:48:12;;;;;;;17.30;4.62;;;;;;;27.78;88.90;101140.06;5199959;56;1139048;-65
2022/08/24 11:53:37;;;;;;;17.52;5.10;;;;;;;27.79;87.48;101138.17;5212743;57;21160;-69
2022/08/24 11:59:16;;;;;;;21.80;5.75;;;;;;;27.94;86.93;101133.28;5185848;56;1137017;-68
2022/08/24 12:04:51;;;;;;;24.72;6.20;;;;;;;28.19;86.78;101135.55;5128734;57;1141049;-68
2022/08/24 12:10:19;;;;;;;8.75;5.05;;;;;;;28.37;85.32;101132.60;5127892;57;1141074;-66
2022/08/24 12:15:50;;;;;;;22.15;5.17;;;;;;;28.29;83.63;101140.49;5143975;56;1139323;-67
2022/08/24 12:20:57;;;;;;;13.55;5.25;;;;;;;28.09;85.19;101130.27;5214681;56;1141035;-65
2022/08/24 12:26:11;;;;;;;24.12;5.50;;;;;;;27.94;84.43;101142.80;5214973;56;1141084;-69
2022/08/24 12:31:36;;;;;;;26.65;5.28;;;;;;;27.80;84.76;101140.68;5214813;56;1141067;-68
2022/08/24 12:36:55;;;;;;;16.20;5.97;;;;;;;27.72;84.75;101146.35;5187304;56;1141033;-69
2022/08/24 12:42:08;;;;;;;13.65;4.28;;;;;;;27.62;84.80;101148.70;5214962;56;1139123;-68
2022/08/24 12:47:22;;;;;;;23.83;4.80;;;;;;;27.54;84.00;101144.30;5156810;56;1139047;-68
2022/08/24 12:52:32;;;;;;;10.55;5.03;;;;;;;27.59;84.75;101138.26;5214515;56;1139414;-68
2022/08/24 12:58:06;;;;;;;16.93;5.57;;;;;;;27.73;86.01;101130.35;5209728;56;1138998;-66
2022/08/24 13:03:25;;;;;;;22.90;5.33;;;;;;;28.03;86.02;101132.48;5128022;57;1139067;-66
2022/08/24 13:08:44;;;;;;;18.98;5.58;;;;;;;28.24;84.99;101134.38;5213493;56;1137304;-66
2022/08/24 13:14:05;;;;;;;21.70;6.17;;;;;;;28.31;82.53;101137.03;5213691;56;1141045;-67
2022/08/24 13:19:15;;;;;;;17.12;4.53;;;;;;;28.32;82.67;101125.09;5213669;56;1141340;-68
2022/08/24 13:24:34;;;;;;;11.40;4.65;;;;;;;28.46;82.71;101119.02;5208710;56;1141057;-67
2022/08/24 13:30:10;;;;;;;35.90;6.62;;;;;;;28.64;82.21;101120.44;5213418;56;1141000;-67
2022/08/24 13:35:42;;;;;;;20.65;5.45;;;;;;;28.81;82.28;101120.73;5179962;56;1141118;-66
2022/08/24 13:40:55;;;;;;;18.57;5.93;;;;;;;28.93;81.39;101125.74;5209255;56;1141109;-66
2022/08/24 13:46:11;;;;;;;14.20;4.92;;;;;;;29.12;81.43;101121.98;5211831;56;1141331;-67
2022/08/24 13:51:33;;;;;;;13.98;4.87;;;;;;;29.22;80.49;101133.70;5120279;57;1141305;-67
2022/08/24 13:57:17;;;;;;;33.08;5.47;;;;;;;29.09;80.01;101134.69;5211187;56;1141110;-67
2022/08/24 14:02:51;;;;;;;23.32;5.40;;;;;;;28.96;80.42;101136.19;5196496;56;1139032;-67
2022/08/24 14:08:28;;;;;;;23.73;5.28;;;;;;;28.82;79.66;101130.57;5131593;57;1139015;-67
2022/08/24 14:13:55;;;;;;;28.55;5.60;;;;;;;28.54;79.74;101126.92;5127876;57;1139016;-68
2022/08/24 14:19:26;;;;;;;15.78;5.17;;;;;;;28.45;80.06;101126.88;5196686;56;1141038;-69
2022/08/24 14:24:48;;;;;;;16.13;5.73;;;;;;;28.27;80.25;101126.27;5132836;56;1141350;-67
2022/08/24 14:30:15;;;;;;;22.30;5.20;;;;;;;28.16;81.16;101121.52;5161909;56;1141558;-69
2022/08/24 14:35:58;;;;;;;18.27;5.80;;;;;;;28.12;81.32;101120.28;5170407;56;1141368;-65
2022/08/24 14:41:41;;;;;;;28.63;5.87;;;;;;;28.15;81.82;101124.77;5162808;56;1141356;-66
2022/08/24 14:47:09;;;;;;;31.85;7.22;;;;;;;28.19;82.17;101124.67;5166028;56;1141473;-67
2022/08/24 14:52:57;;;;;;;23.67;6.83;;;;;;;28.11;81.66;101118.09;5163920;56;1138966;-69
2022/08/24 14:58:25;;;;;;;35.95;6.28;;;;;;;28.06;81.69;101111.13;5085875;56;1139216;-67
2022/08/24 15:04:12;;;;;;;28.60;5.97;;;;;;;27.95;80.83;101113.20;5155639;56;1139332;-65
2022/08/24 15:09:35;;;;;;;19.90;5.60;;;;;;;27.87;81.55;101111.55;5104127;56;1140986;-68
2022/08/24 15:14:53;;;;;;;22.00;5.53;;;;;;;27.76;81.64;101112.25;5139369;56;1141144;-66
2022/08/24 15:20:21;;;;;;;30.60;6.65;;;;;;;27.64;82.04;101112.11;5213285;56;1141093;-65
2022/08/24 15:25:37;;;;;;;26.95;6.28;;;;;;;27.55;82.45;101109.28;5169630;56;1141057;-68
2022/08/24 15:30:48;;;;;;;13.65;6.05;;;;;;;27.38;82.18;101106.73;5193766;57;1141060;-68
2022/08/24 15:36:17;;;;;;;22.35;6.83;;;;;;;27.38;82.18;101106.73;5193107;57;1141343;-66
2022/08/24 15:41:34;;;;;;;25.23;5.90;;;;;;;27.34;82.93;101107.41;5193957;57;1141333;-67
2022/08/24 15:46:43;;;;;;;22.85;6.67;;;;;;;27.45;83.87;101106.73;5155138;57;1141308;-68
2022/08/24 15:52:00;;;;;;;26.73;6.53;;;;;;;27.56;83.65;101100.12;5178423;57;1141433;-68
2022/08/24 15:57:19;;;;;;;28.05;9.00;;;;;;;27.72;83.32;101095.23;5161659;56;1141085;-69
2022/08/24 16:02:34;;;;;;;18.57;6.85;;;;;;;27.83;83.44;101095.36;5207874;56;1141079;-69
2022/08/24 16:08:06;;;;;;;23.20;7.12;;;;;;;27.96;82.57;101088.48;5055309;57;1139255;-69
2022/08/24 16:13:25;;;;;;;25.88;9.80;;;;;;;28.03;82.49;101089.81;5138289;57;1139317;-67
2022/08/24 16:18:52;;;;;;;20.75;8.40;;;;;;;28.09;81.69;101086.22;5148961;56;1139229;-67
2022/08/24 16:24:24;;;;;;;20.27;5.97;;;;;;;28.14;81.74;101088.26;5222265;56;1139337;-68
2022/08/24 16:29:44;;;;;;;15.43;5.87;;;;;;;28.17;81.67;101099.54;5224579;56;1141313;-66
2022/08/24 16:34:56;;;;;;;26.52;6.58;;;;;;;28.16;80.99;101101.95;5196723;56;1141032;-66
2022/08/24 16:40:03;;;;;;;24.55;7.20;;;;;;;28.09;80.37;101101.70;5109041;56;1141070;-65
2022/08/24 16:45:14;;;;;;;24.63;6.78;;;;;;;27.94;80.60;101108.81;5138267;56;1141138;-68
2022/08/24 16:50:22;;;;;;;30.77;7.50;;;;;;;27.93;81.17;101109.86;5172836;56;1141068;-65
2022/08/24 16:55:29;;;;;;;25.62;6.75;;;;;;;27.89;81.10;101115.42;5188408;56;1141045;-65
2022/08/24 17:00:35;;;;;;;23.35;7.10;;;;;;;27.80;81.32;101114.86;5141748;56;1141033;-66
2022/08/24 17:05:42;;;;;;;26.85;7.25;;;;;;;27.73;81.27;101124.08;5145093;56;1141203;-66
2022/08/24 17:10:48;;;;;;;31.30;8.00;;;;;;;27.64;81.17;101116.19;5223998;56;1141032;-67
2022/08/24 17:15:53;;;;;;;23.67;6.15;;;;;;;27.55;81.64;101122.03;5223762;56;1141367;-67
2022/08/24 17:21:00;;;;;;;19.27;6.10;;;;;;;27.46;81.92;101120.63;5223906;56;1141070;-67
2022/08/24 17:26:12;;;;;;;29.05;6.97;;;;;;;27.35;81.86;101129.45;5223938;56;1141180;-68
2022/08/24 17:31:18;;;;;;;41.35;7.80;;;;;;;27.23;81.99;101128.73;5223686;56;1141003;-66
2022/08/24 17:36:25;;;;;;;36.65;7.50;;;;;;;27.13;82.36;101137.86;5223857;56;1141090;-67
2022/08/24 17:41:30;;;;;;;21.02;6.70;;;;;;;27.07;82.62;101142.77;5223807;56;1141085;-65
2022/08/24 17:46:36;;;;;;;23.47;7.12;;;;;;;26.92;82.77;101131.27;5223727;56;1141310;-67
2022/08/24 17:51:42;;;;;;;28.40;6.75;;;;;;;26.96;83.32;101155.64;5223708;56;1141311;-64
2022/08/24 17:56:49;;;;;;;26.10;7.58;;;;;;;26.97;83.88;101166.81;5206323;56;1141084;-66
2022/08/24 18:01:59;;;;;;;52.60;9.98;;;;;;;26.95;84.10;101168.90;5133484;57;1141344;-68
2022/08/24 18:07:12;;;;;;;55.98;9.90;;;;;;;26.93;84.23;101171.81;5192499;56;1141233;-66
2022/08/24 18:12:22;;;;;;;72.72;11.95;;;;;;;26.86;84.34;101179.12;5213272;56;1141071;-65
2022/08/24 18:17:39;;;;;;;82.67;14.68;;;;;;;26.73;84.47;101173.70;5163236;56;1143284;-68
2022/08/24 18:22:46;;;;;;;72.32;12.95;;;;;;;26.68;84.83;101187.05;5067240;57;1143289;-67
2022/08/24 18:27:55;;;;;;;58.58;12.10;;;;;;;26.49;84.84;101189.22;5042626;58;1143164;-67
2022/08/24 18:33:01;;;;;;;70.08;10.85;;;;;;;26.43;86.33;101190.06;5042841;58;1141324;-68
2022/08/24 18:38:06;;;;;;;61.45;11.22;;;;;;;26.41;86.76;101190.27;5048311;57;1141284;-67
2022/08/24 18:43:15;;;;;;;41.37;11.38;;;;;;;26.37;86.87;101187.64;5145413;56;1141076;-68
2022/08/24 18:48:22;;;;;;;123.28;52.83;;;;;;;26.20;86.53;101184.97;5165412;57;1141103;-66
2022/08/24 18:53:28;;;;;;;95.00;78.92;;;;;;;25.92;86.38;101179.16;5139029;57;1143134;-68
2022/08/24 18:58:35;;;;;;;30.92;15.38;;;;;;;25.61;86.40;101172.02;5116838;57;1141181;-65
2022/08/24 19:03:42;;;;;;;34.38;13.10;;;;;;;25.37;87.16;101180.62;5067278;57;1141084;-66
2022/08/24 19:08:48;;;;;;;36.45;13.43;;;;;;;25.30;88.37;101181.95;5157542;57;1141082;-67
2022/08/24 19:13:54;;;;;;;67.67;40.63;;;;;;;25.19;88.33;101171.69;5157720;57;1141162;-64
2022/08/24 19:18:59;;;;;;;30.57;13.83;;;;;;;25.01;88.64;101182.18;5082728;57;1141069;-66
2022/08/24 19:24:06;;;;;;;158.12;97.47;;;;;;;24.87;89.27;101179.86;5146453;57;1141099;-66
2022/08/24 19:29:12;;;;;;;39.60;22.65;;;;;;;24.72;89.75;101180.47;5085062;57;1143354;-67
2022/08/24 19:34:17;;;;;;;32.15;17.48;;;;;;;24.53;90.41;101170.62;5151741;56;1141091;-66
2022/08/24 19:39:24;;;;;;;33.30;15.70;;;;;;;24.58;91.67;101175.97;5116152;57;1141096;-65
2022/08/24 19:49:56;;;;;;;33.64;17.42;;;;;;;24.72;92.24;101177.76;5169790;57;1143132;-68
2022/08/24 19:55:03;;;;;;;41.57;20.67;;;;;;;24.79;92.75;101170.00;4994075;58;1143017;-66
2022/08/24 20:00:23;;;;;;;27.63;16.23;;;;;;;24.89;93.40;101173.22;5098711;57;1143100;-65
2022/08/24 20:05:29;;;;;;;38.02;17.60;;;;;;;24.88;92.76;101174.26;5139103;57;1143151;-65
2022/08/24 20:10:36;;;;;;;43.13;16.32;;;;;;;24.72;92.42;101179.95;5140624;57;1143378;-65
2022/08/24 20:15:43;;;;;;;37.58;15.98;;;;;;;24.67;92.78;101178.85;5127274;57;1143124;-67
2022/08/24 20:20:48;;;;;;;48.25;26.30;;;;;;;24.51;92.67;101183.50;5104151;57;1143265;-66
2022/08/24 20:25:57;;;;;;;63.65;38.45;;;;;;;24.44;93.41;101190.70;5094064;57;1143405;-67
2022/08/24 20:31:03;;;;;;;48.92;25.65;;;;;;;24.43;93.95;101188.22;5089364;57;1143137;-65
2022/08/24 20:36:28;;;;;;;40.38;23.90;;;;;;;24.52;94.28;101195.99;5057849;57;1143071;-66
2022/08/24 20:41:34;;;;;;;30.35;16.73;;;;;;;24.47;93.87;101196.23;5057363;57;1143141;-67
2022/08/24 20:46:41;;;;;;;56.10;31.05;;;;;;;24.38;93.56;101197.41;5067606;57;1143189;-66
2022/08/24 20:51:46;;;;;;;35.13;19.40;;;;;;;24.37;94.45;101207.90;5141227;57;1143160;-65
2022/08/24 20:56:53;;;;;;;29.52;15.10;;;;;;;24.40;94.82;101209.72;5141229;57;1143230;-64
2022/08/24 21:01:59;;;;;;;22.95;14.03;;;;;;;24.32;94.09;101205.77;5115508;57;1143178;-67
2022/08/24 21:07:08;;;;;;;22.32;11.40;;;;;;;24.24;94.10;101211.30;5223833;56;1143322;-66
2022/08/24 21:12:15;;;;;;;20.97;11.53;;;;;;;24.19;94.35;101211.84;5228472;56;1143114;-64
2022/08/24 21:17:22;;;;;;;20.60;8.55;;;;;;;24.14;95.17;101220.19;5227995;56;1143147;-65
2022/08/24 21:22:28;;;;;;;21.12;7.17;;;;;;;24.09;95.60;101211.83;5196065;56;1141036;-65
2022/08/24 21:27:37;;;;;;;23.87;7.60;;;;;;;24.07;96.10;101213.88;5184663;56;1141085;-66
2022/08/24 21:38:07;;;;;;;12.07;5.92;;;;;;;24.08;97.33;101214.20;5193036;56;1138927;-65
2022/08/24 21:43:13;;;;;;;14.98;6.83;;;;;;;24.10;97.27;101219.75;5175736;56;1141303;-67
2022/08/24 21:48:20;;;;;;;12.93;7.28;;;;;;;24.00;97.50;101221.06;5197450;56;1141302;-65
2022/08/24 21:53:25;;;;;;;19.62;6.37;;;;;;;23.88;98.10;101215.31;5179956;56;1141041;-66
2022/08/24 21:58:32;;;;;;;16.10;6.45;;;;;;;23.79;98.56;101216.45;5193587;56;1141099;-65
2022/08/24 22:03:39;;;;;;;13.93;6.00;;;;;;;23.64;98.91;101209.72;5189624;56;1140945;-67
2022/08/24 22:08:45;;;;;;;20.37;6.87;;;;;;;23.61;99.54;101210.09;5175821;56;1138931;-67
2022/08/24 22:13:53;;;;;;;20.82;7.28;;;;;;;23.58;99.57;101206.41;5172304;56;1139073;-66
2022/08/24 22:18:58;;;;;;;14.63;6.60;;;;;;;23.55;99.72;101208.63;5179097;56;1138988;-67
2022/08/24 22:24:05;;;;;;;13.95;5.80;;;;;;;23.56;99.99;101208.45;5158972;56;1138932;-66
2022/08/24 22:29:11;;;;;;;14.33;6.53;;;;;;;23.53;99.99;101199.36;5127594;57;1138973;-65
2022/08/24 22:34:18;;;;;;;14.85;6.20;;;;;;;23.40;100.00;101193.24;5127554;57;1139079;-66
2022/08/24 22:39:24;;;;;;;20.12;6.50;;;;;;;23.29;100.00;101192.87;5127063;57;1141143;-65
2022/08/24 22:44:30;;;;;;;19.62;6.25;;;;;;;23.20;100.00;101193.48;5190465;56;1141223;-67
2022/08/24 22:49:47;;;;;;;15.28;5.55;;;;;;;23.13;100.00;101196.07;5213113;56;1141185;-66
2022/08/24 22:54:49;;;;;;;16.00;4.65;;;;;;;23.09;100.00;101192.06;5212492;56;1141283;-66
2022/08/24 22:59:55;;;;;;;24.50;5.53;;;;;;;23.04;100.00;101189.09;5205570;56;1141570;-67
2022/08/24 23:05:00;;;;;;;16.23;6.00;;;;;;;23.00;100.00;101186.94;5171054;56;1141054;-67
2022/08/24 23:10:07;;;;;;;10.72;4.92;;;;;;;23.00;100.00;101174.29;5127438;57;1141085;-64
2022/08/24 23:15:13;;;;;;;15.43;5.80;;;;;;;22.98;100.00;101175.48;5139051;56;1141152;-67
2022/08/24 23:20:19;;;;;;;13.28;5.30;;;;;;;22.99;100.00;101163.16;5213091;56;1141088;-65
2022/08/24 23:25:25;;;;;;;14.53;4.65;;;;;;;22.99;100.00;101156.42;5213098;56;1141053;-66
2022/08/24 23:30:31;;;;;;;12.65;5.45;;;;;;;23.03;100.00;101156.39;5212967;56;1139014;-67
2022/08/24 23:35:37;;;;;;;11.93;6.35;;;;;;;23.03;100.00;101155.55;5080300;57;1139010;-65
2022/08/24 23:40:44;;;;;;;17.70;5.37;;;;;;;22.91;100.00;101155.68;5126021;57;1143421;-67
2022/08/24 23:45:52;;;;;;;14.60;5.37;;;;;;;22.88;100.00;101145.25;5211837;56;1143145;-65
2022/08/24 23:50:59;;;;;;;23.85;6.00;;;;;;;22.86;100.00;101154.03;5125175;57;1143102;-67